Time;durP1;ratioP1;P1;durP2;ratioP2;P2;SDS_P1;SDS_P2;PMS_P1;PMS_P2;Temp;Humidity;BMP_temperature;BMP_pressure;BME280_temperature;BME280_humidity;BME280_pressure;Samples;Min_cycle;Max_cycle;Signal;HPM_P1;HPM_P2
2022/10/13 00:02:46;;;;;;;33.43;17.40;;;;;;;1.93;82.97;99832.70;2246873;79;20988;-77
2022/10/13 00:05:46;;;;;;;39.63;18.73;;;;;;;1.95;83.01;99834.97;2246710;79;20952;-82
2022/10/13 00:08:47;;;;;;;34.53;18.30;;;;;;;1.93;82.88;99833.98;2247158;79;20901;-82
2022/10/13 00:11:47;;;;;;;36.83;18.03;;;;;;;1.85;82.51;99840.84;2247171;79;20968;-82
2022/10/13 00:14:48;;;;;;;37.63;19.10;;;;;;;1.78;82.51;99839.97;2247206;79;21272;-82
2022/10/13 00:17:48;;;;;;;37.33;17.97;;;;;;;1.74;82.74;99840.97;2247680;79;20937;-82
2022/10/13 00:20:48;;;;;;;40.93;19.53;;;;;;;1.72;82.77;99834.80;2247236;79;21024;-82
2022/10/13 00:23:49;;;;;;;41.37;19.27;;;;;;;1.71;82.91;99842.03;2247476;79;20969;-82
2022/10/13 00:26:49;;;;;;;43.93;18.83;;;;;;;1.69;82.93;99843.22;2247558;79;20925;-82
2022/10/13 00:29:50;;;;;;;38.57;18.53;;;;;;;1.67;83.04;99846.09;2247490;79;20901;-82
2022/10/13 00:32:50;;;;;;;42.17;19.13;;;;;;;1.65;82.97;99836.11;2247315;79;20933;-82
2022/10/13 00:35:50;;;;;;;99.43;21.97;;;;;;;1.57;82.47;99834.34;2247626;79;20960;-81
2022/10/13 00:38:51;;;;;;;40.30;18.43;;;;;;;1.57;82.47;99834.34;2247645;79;20945;-82
2022/10/13 00:41:53;;;;;;;38.77;18.93;;;;;;;1.56;82.76;99829.98;2247793;79;20960;-82
2022/10/13 00:44:52;;;;;;;36.60;18.23;;;;;;;1.54;82.84;99835.43;2247593;79;20921;-81
2022/10/13 00:47:52;;;;;;;30.87;17.27;;;;;;;1.54;83.14;99826.42;2247468;79;20886;-82
2022/10/13 00:50:52;;;;;;;38.13;18.67;;;;;;;1.55;83.09;99824.74;2243477;79;20980;-82
2022/10/13 00:53:54;;;;;;;36.33;18.10;;;;;;;1.53;82.94;99823.36;2236216;80;20896;-82
2022/10/13 00:56:53;;;;;;;35.17;19.20;;;;;;;1.50;82.95;99824.85;2236194;80;20916;-82
2022/10/13 00:59:54;;;;;;;33.50;18.93;;;;;;;1.52;82.86;99827.13;2235734;80;20919;-78
2022/10/13 01:02:54;;;;;;;81.90;20.20;;;;;;;1.51;83.08;99819.80;2235528;80;20947;-81
2022/10/13 01:05:55;;;;;;;49.73;20.47;;;;;;;1.52;83.43;99820.69;2235878;80;20939;-83
2022/10/13 01:08:55;;;;;;;31.97;17.40;;;;;;;1.49;83.53;99820.50;2236502;80;20963;-83
2022/10/13 01:11:55;;;;;;;31.67;17.50;;;;;;;1.48;83.25;99821.30;2236367;80;20950;-82
2022/10/13 01:14:56;;;;;;;29.50;17.30;;;;;;;1.45;83.00;99816.84;2236385;80;20932;-82
2022/10/13 01:17:56;;;;;;;40.17;18.57;;;;;;;1.41;82.87;99815.27;2235941;80;20947;-82
2022/10/13 01:20:57;;;;;;;48.60;19.67;;;;;;;1.38;82.96;99815.08;2235490;80;21014;-83
2022/10/13 01:23:57;;;;;;;50.90;19.00;;;;;;;1.34;83.14;99807.56;2236191;80;20963;-81
2022/10/13 01:26:57;;;;;;;32.00;18.37;;;;;;;1.33;83.05;99804.49;2236428;80;20916;-82
2022/10/13 01:29:58;;;;;;;31.37;17.03;;;;;;;1.28;82.78;99804.60;2236689;80;20928;-81
2022/10/13 01:32:58;;;;;;;36.07;17.57;;;;;;;1.23;82.82;99802.13;2235895;80;20946;-81
2022/10/13 01:35:59;;;;;;;43.73;18.33;;;;;;;1.20;83.02;99796.80;2237183;80;20919;-82
2022/10/13 01:38:59;;;;;;;33.00;17.33;;;;;;;1.22;83.25;99792.24;2237285;80;20896;-81
2022/10/13 01:42:00;;;;;;;32.60;17.30;;;;;;;1.24;83.29;99798.38;2236325;80;20987;-81
2022/10/13 01:45:00;;;;;;;38.37;18.00;;;;;;;1.27;83.17;99796.00;2237573;80;20896;-82
2022/10/13 01:48:00;;;;;;;30.27;17.43;;;;;;;1.26;83.03;99789.07;2237410;80;20927;-82
2022/10/13 01:51:01;;;;;;;33.37;16.97;;;;;;;1.24;82.99;99785.91;2240175;79;21028;-82
2022/10/13 01:54:01;;;;;;;36.53;17.70;;;;;;;1.21;82.91;99793.03;2248431;79;20937;-81
2022/10/13 01:57:02;;;;;;;62.27;18.97;;;;;;;1.16;83.01;99785.42;2247584;79;20933;-80
2022/10/13 02:00:02;;;;;;;36.93;17.53;;;;;;;1.15;83.32;99793.93;2247639;79;20937;-82
2022/10/13 02:03:02;;;;;;;34.90;17.00;;;;;;;1.15;83.32;99793.93;2247985;79;20988;-83
2022/10/13 02:06:03;;;;;;;34.23;17.20;;;;;;;1.15;83.32;99795.22;2247364;79;20953;-82
2022/10/13 02:09:03;;;;;;;30.93;16.80;;;;;;;1.09;83.06;99788.40;2246974;79;20972;-81
2022/10/13 02:12:04;;;;;;;36.93;17.03;;;;;;;1.07;83.15;99783.55;2246958;79;20940;-81
2022/10/13 02:15:04;;;;;;;31.83;17.43;;;;;;;1.06;83.26;99778.31;2246474;79;20950;-81
2022/10/13 02:18:04;;;;;;;29.40;17.43;;;;;;;1.02;83.19;99777.23;2246653;79;20960;-82
2022/10/13 02:21:05;;;;;;;30.67;18.03;;;;;;;0.98;83.11;99767.94;2246525;79;21024;-83
2022/10/13 02:24:05;;;;;;;27.60;16.87;;;;;;;0.97;83.24;99772.58;2246525;79;20952;-83
2022/10/13 02:27:06;;;;;;;32.53;16.60;;;;;;;0.95;83.13;99771.20;2246235;79;20944;-81
2022/10/13 02:30:06;;;;;;;53.97;17.33;;;;;;;0.90;83.25;99762.30;2246127;79;20940;-82
2022/10/13 02:33:06;;;;;;;29.57;16.70;;;;;;;0.90;83.40;99766.16;2247907;79;20937;-81
2022/10/13 02:36:07;;;;;;;45.03;15.50;;;;;;;0.90;83.49;99764.48;2246967;79;20937;-82
2022/10/13 02:39:07;;;;;;;40.00;15.57;;;;;;;0.93;83.63;99765.07;2246095;79;20901;-81
2022/10/13 02:42:08;;;;;;;30.83;15.13;;;;;;;0.92;83.58;99759.04;2246848;79;20944;-81
2022/10/13 02:45:08;;;;;;;26.17;14.97;;;;;;;0.93;83.60;99759.93;2246179;79;20945;-81
2022/10/13 02:48:09;;;;;;;29.83;15.43;;;;;;;0.89;83.43;99756.67;2246663;79;21261;-82
2022/10/13 02:51:09;;;;;;;32.10;14.10;;;;;;;0.85;83.30;99752.98;2245220;79;21048;-82
2022/10/13 02:54:09;;;;;;;28.57;13.67;;;;;;;0.79;83.24;99753.87;2242512;79;20955;-81
2022/10/13 02:57:10;;;;;;;30.60;14.90;;;;;;;0.77;83.41;99760.59;2242167;79;20939;-81
2022/10/13 03:00:10;;;;;;;30.70;14.90;;;;;;;0.77;83.60;99758.02;2242360;79;21290;-81
2022/10/13 03:03:11;;;;;;;48.07;16.47;;;;;;;0.81;83.75;99755.25;2242289;79;20943;-82
2022/10/13 03:06:11;;;;;;;29.07;15.37;;;;;;;0.82;83.74;99750.61;2242359;79;20919;-82
2022/10/13 03:09:11;;;;;;;26.50;14.40;;;;;;;0.87;83.77;99750.54;2242668;79;20954;-82
2022/10/13 03:12:12;;;;;;;27.53;14.50;;;;;;;0.83;83.58;99751.09;2242258;79;20955;-82
2022/10/13 03:15:12;;;;;;;29.43;14.03;;;;;;;0.81;83.64;99747.55;2242457;79;21350;-82
2022/10/13 03:18:13;;;;;;;28.37;15.37;;;;;;;0.82;83.63;99745.47;2242440;79;20943;-81
2022/10/13 03:21:13;;;;;;;47.13;15.23;;;;;;;0.79;83.49;99745.27;2242068;79;20991;-82
2022/10/13 03:24:13;;;;;;;25.03;14.10;;;;;;;0.78;83.52;99740.92;2242007;79;21006;-81
2022/10/13 03:27:14;;;;;;;29.90;14.17;;;;;;;0.78;83.75;99741.81;2242317;79;20931;-82
2022/10/13 03:30:14;;;;;;;26.10;13.53;;;;;;;0.80;83.63;99741.52;2242262;79;20943;-81
2022/10/13 03:33:15;;;;;;;26.90;14.30;;;;;;;0.81;83.50;99743.69;2242098;79;20986;-81
2022/10/13 03:36:15;;;;;;;29.57;13.97;;;;;;;0.80;83.41;99745.77;2242262;79;20958;-82
2022/10/13 03:39:15;;;;;;;27.60;13.93;;;;;;;0.77;83.62;99741.71;2242189;79;21014;-81
2022/10/13 03:42:16;;;;;;;26.73;13.93;;;;;;;0.74;83.30;99742.80;2240980;79;21362;-81
2022/10/13 03:45:16;;;;;;;51.57;16.23;;;;;;;0.67;83.20;99746.66;2241174;79;20954;-80
2022/10/13 03:48:17;;;;;;;30.30;15.47;;;;;;;0.67;83.61;99747.94;2241472;79;20998;-81
2022/10/13 03:51:17;;;;;;;28.17;13.87;;;;;;;0.67;83.62;99750.51;2240332;79;21035;-80
2022/10/13 03:54:17;;;;;;;24.83;12.97;;;;;;;0.64;83.37;99741.31;2243782;79;21000;-82
2022/10/13 03:57:18;;;;;;;27.73;14.07;;;;;;;0.62;83.26;99745.07;2244262;79;21000;-82
2022/10/13 04:00:18;;;;;;;27.87;13.70;;;;;;;0.62;83.44;99742.50;2244095;79;21004;-81
2022/10/13 04:03:19;;;;;;;24.43;14.00;;;;;;;0.62;83.32;99738.65;2244565;79;21019;-81
2022/10/13 04:06:19;;;;;;;27.87;14.30;;;;;;;0.60;82.97;99729.06;2244969;79;20932;-81
2022/10/13 04:09:20;;;;;;;46.43;15.30;;;;;;;0.54;82.89;99724.81;2246362;79;20948;-82
2022/10/13 04:12:20;;;;;;;23.73;12.93;;;;;;;0.51;83.19;99724.61;2245096;79;20972;-81
2022/10/13 04:15:20;;;;;;;25.33;12.73;;;;;;;0.46;83.22;99728.16;2246240;79;20936;-82
2022/10/13 04:18:24;;;;;;;29.53;13.40;;;;;;;0.46;83.34;99727.28;2246943;79;20997;-81
2022/10/13 04:21:24;;;;;;;30.10;13.13;;;;;;;0.48;83.49;99729.16;2246132;79;21019;-81
2022/10/13 04:24:24;;;;;;;26.63;12.90;;;;;;;0.50;83.41;99730.14;2245711;79;21399;-82
2022/10/13 04:27:25;;;;;;;24.07;12.40;;;;;;;0.52;83.52;99736.27;2244743;79;20964;-82
2022/10/13 04:30:25;;;;;;;29.73;13.07;;;;;;;0.54;83.32;99728.66;2244879;79;21012;-82
2022/10/13 04:33:26;;;;;;;19.23;12.37;;;;;;;0.55;83.32;99735.19;2245267;79;20995;-82
2022/10/13 04:36:26;;;;;;;21.70;12.70;;;;;;;0.59;83.25;99739.73;2244989;79;20960;-81
2022/10/13 04:39:26;;;;;;;26.97;12.77;;;;;;;0.56;83.04;99730.55;2243796;79;21798;-82
2022/10/13 04:42:27;;;;;;;22.60;12.20;;;;;;;0.53;82.97;99733.31;2243307;79;21004;-81
2022/10/13 04:45:27;;;;;;;22.83;12.27;;;;;;;0.50;83.04;99725.01;2243631;79;21000;-81
2022/10/13 04:48:28;;;;;;;64.90;13.50;;;;;;;0.46;83.07;99724.70;2243198;79;20996;-76
2022/10/13 04:51:28;;;;;;;29.00;12.53;;;;;;;0.42;82.89;99722.73;2241031;79;21020;-82
2022/10/13 04:54:28;;;;;;;282.27;26.13;;;;;;;0.39;83.12;99721.24;2244087;79;20991;-81
2022/10/13 04:57:29;;;;;;;34.23;12.70;;;;;;;0.39;83.27;99730.23;2244814;79;21010;-82
2022/10/13 05:00:29;;;;;;;26.37;12.60;;;;;;;0.42;83.48;99725.30;2243866;79;21023;-81
2022/10/13 05:03:30;;;;;;;35.77;13.40;;;;;;;0.40;83.58;99722.62;2243140;79;21003;-83
2022/10/13 05:06:30;;;;;;;29.27;13.07;;;;;;;0.42;83.80;99725.30;2243549;79;21383;-83
2022/10/13 05:09:34;;;;;;;30.53;12.50;;;;;;;0.42;84.12;99726.19;2243739;79;20989;-81
2022/10/13 05:12:34;;;;;;;29.03;12.07;;;;;;;0.45;84.25;99721.64;2243502;79;20999;-81
2022/10/13 05:15:34;;;;;;;18.20;11.87;;;;;;;0.51;84.39;99722.05;2244517;79;21435;-81
2022/10/13 05:18:35;;;;;;;27.07;11.77;;;;;;;0.53;83.37;99731.63;2244724;79;20996;-81
2022/10/13 05:21:35;;;;;;;24.27;12.37;;;;;;;0.55;83.47;99732.62;2244258;79;21067;-80
2022/10/13 05:24:36;;;;;;;62.00;13.93;;;;;;;0.63;83.86;99726.69;2242786;79;21243;-80
2022/10/13 05:27:36;;;;;;;29.07;12.23;;;;;;;0.67;83.71;99726.49;2242738;79;21015;-81
2022/10/13 05:30:37;;;;;;;23.20;12.67;;;;;;;0.72;83.75;99723.82;2243095;79;21011;-81
2022/10/13 05:33:37;;;;;;;22.97;12.03;;;;;;;0.77;83.81;99728.86;2243352;79;20941;-85
2022/10/13 05:36:37;;;;;;;18.53;12.00;;;;;;;0.81;83.99;99722.73;2243050;79;20956;-81
2022/10/13 05:39:38;;;;;;;52.20;13.67;;;;;;;0.90;83.81;99725.03;2243617;79;20996;-81
2022/10/13 05:42:38;;;;;;;55.17;13.07;;;;;;;1.00;83.87;99738.96;2243292;79;21406;-80
2022/10/13 05:45:39;;;;;;;70.77;14.40;;;;;;;1.10;84.04;99736.58;2244151;79;20976;-81
2022/10/13 05:48:39;;;;;;;37.57;13.50;;;;;;;1.22;84.01;99734.77;2243045;79;20948;-80
2022/10/13 05:51:39;;;;;;;262.77;30.50;;;;;;;1.37;84.06;99737.41;2241567;78;21042;-80
2022/10/13 05:54:40;;;;;;;25.10;12.10;;;;;;;1.54;83.90;99736.76;2231168;80;21005;-80
2022/10/13 05:57:40;;;;;;;1954.67;151.03;;;;;;;1.68;83.62;99737.20;2142297;80;21083;-79
2022/10/13 06:00:41;;;;;;;229.93;23.40;;;;;;;1.83;83.32;99739.45;2161779;82;21695;-80
2022/10/13 06:03:41;;;;;;;185.87;22.37;;;;;;;1.99;83.39;99740.37;2161508;82;20954;-82
2022/10/13 06:06:42;;;;;;;25.20;11.77;;;;;;;2.19;83.49;99737.28;2161179;82;20953;-79
2022/10/13 06:09:42;;;;;;;39.33;13.40;;;;;;;2.36;82.80;99736.58;2161144;82;20939;-80
2022/10/13 06:12:44;;;;;;;75.83;15.60;;;;;;;2.45;82.36;99743.95;2162748;82;20962;-82
2022/10/13 06:15:44;;;;;;;25.03;12.67;;;;;;;2.54;82.38;99739.33;2161596;82;20966;-80
2022/10/13 06:18:45;;;;;;;39.90;14.90;;;;;;;2.64;82.09;99736.91;2164110;82;21505;-80
2022/10/13 06:21:45;;;;;;;45.17;13.67;;;;;;;2.73;82.04;99733.17;2162690;82;20958;-81
2022/10/13 06:24:45;;;;;;;20.90;11.43;;;;;;;2.84;82.20;99724.34;2161006;82;20938;-82
2022/10/13 06:27:46;;;;;;;18.00;11.60;;;;;;;2.97;82.19;99727.61;2161343;82;20938;-82
2022/10/13 06:30:52;;;;;;;20.47;11.60;;;;;;;3.19;82.17;99730.16;2160728;82;20926;-81
2022/10/13 06:33:47;;;;;;;130.07;18.33;;;;;;;3.19;82.17;99730.16;2160274;82;20938;-82
2022/10/13 06:36:47;;;;;;;60.90;12.93;;;;;;;3.35;82.43;99729.30;2160951;82;20930;-82
2022/10/13 06:39:47;;;;;;;21.00;12.07;;;;;;;3.56;82.62;99728.31;2161630;82;20974;-80
2022/10/13 06:42:48;;;;;;;21.70;11.63;;;;;;;3.84;83.50;99726.37;2161381;82;20962;-80
2022/10/13 06:45:49;;;;;;;50.43;13.17;;;;;;;4.10;84.06;99722.95;2161720;82;21065;-82
2022/10/13 06:48:50;;;;;;;24.47;11.57;;;;;;;4.36;84.60;99723.02;2161787;82;20954;-82
2022/10/13 06:51:50;;;;;;;24.67;11.57;;;;;;;4.72;85.25;99716.19;2160679;82;21313;-82
2022/10/13 06:54:50;;;;;;;23.93;12.37;;;;;;;5.00;86.11;99712.81;2160886;82;20946;-81
2022/10/13 06:57:51;;;;;;;20.70;11.77;;;;;;;5.35;86.52;99711.02;2129960;81;21033;-83
2022/10/13 07:00:51;;;;;;;30.63;12.80;;;;;;;5.67;87.06;99710.78;2123480;84;21926;-82
2022/10/13 07:03:51;;;;;;;27.63;11.83;;;;;;;5.99;86.70;99707.05;2123622;84;20942;-82
2022/10/13 07:06:52;;;;;;;27.33;12.20;;;;;;;6.27;86.66;99703.97;2123440;84;21402;-82
2022/10/13 07:09:52;;;;;;;25.40;12.53;;;;;;;6.53;85.69;99702.88;2123357;84;20969;-82
2022/10/13 07:12:53;;;;;;;25.63;13.40;;;;;;;6.72;86.29;99701.51;2122575;84;20945;-82
2022/10/13 07:15:53;;;;;;;29.10;13.17;;;;;;;6.96;86.12;99697.74;2123344;84;20945;-81
2022/10/13 07:18:54;;;;;;;28.97;12.53;;;;;;;7.18;85.97;99690.38;2123714;84;20894;-83
2022/10/13 07:21:54;;;;;;;26.60;12.47;;;;;;;7.43;85.46;99689.60;2123578;84;20950;-83
2022/10/13 07:24:54;;;;;;;29.87;13.13;;;;;;;7.67;85.37;99691.81;2123910;84;20921;-82
2022/10/13 07:27:55;;;;;;;26.43;12.00;;;;;;;7.89;84.87;99687.89;2123464;84;20993;-83
2022/10/13 07:30:55;;;;;;;20.93;12.20;;;;;;;8.13;84.58;99681.78;2123732;84;21595;-81
2022/10/13 07:33:56;;;;;;;27.70;12.70;;;;;;;8.39;84.36;99684.00;2123302;84;20977;-82
2022/10/13 07:36:58;;;;;;;21.13;11.47;;;;;;;8.58;83.50;99677.28;2101301;84;20974;-82
2022/10/13 07:39:59;;;;;;;24.13;11.63;;;;;;;8.82;82.95;99679.83;2123260;84;20961;-82
2022/10/13 07:42:59;;;;;;;25.50;11.60;;;;;;;9.06;82.72;99674.08;2122855;84;20973;-80
2022/10/13 07:45:59;;;;;;;24.73;11.77;;;;;;;9.26;81.83;99670.37;2123454;84;20965;-81
2022/10/13 07:49:00;;;;;;;28.40;12.03;;;;;;;9.45;81.52;99661.79;2123641;84;20981;-82
2022/10/13 07:52:00;;;;;;;34.13;11.47;;;;;;;9.66;80.40;99663.74;2124136;84;20957;-81
2022/10/13 07:55:00;;;;;;;24.90;12.00;;;;;;;9.82;79.93;99665.05;2124199;84;20942;-81
2022/10/13 07:58:01;;;;;;;134.27;16.17;;;;;;;10.05;79.64;99667.87;2123486;81;21375;-82
2022/10/13 08:01:01;;;;;;;23.73;11.47;;;;;;;10.24;79.32;99657.95;2123941;84;20922;-80
2022/10/13 08:04:02;;;;;;;22.87;11.70;;;;;;;10.34;77.60;99656.92;2125317;84;20949;-81
2022/10/13 08:07:02;;;;;;;20.70;11.67;;;;;;;10.40;76.87;99653.59;2123481;84;20990;-82
2022/10/13 08:10:02;;;;;;;21.93;10.60;;;;;;;10.51;75.82;99653.47;2122936;84;20982;-81
2022/10/13 08:13:03;;;;;;;25.02;10.93;;;;;;;10.62;74.90;99653.30;2123117;84;20946;-80
2022/10/13 08:16:03;;;;;;;22.80;10.03;;;;;;;10.74;75.10;99649.69;2122448;84;20948;-79
2022/10/13 08:19:04;;;;;;;19.37;10.15;;;;;;;10.85;73.99;99649.94;2122295;84;21089;-81
2022/10/13 08:22:04;;;;;;;21.00;10.18;;;;;;;11.08;74.56;99645.23;2123379;84;20946;-80
2022/10/13 08:25:06;;;;;;;18.48;9.38;;;;;;;11.33;73.74;99641.05;2124254;84;20989;-80
2022/10/13 08:28:08;;;;;;;14.23;8.28;;;;;;;11.48;72.59;99637.44;2122651;84;21746;-80
2022/10/13 08:31:08;;;;;;;15.45;9.15;;;;;;;11.59;71.49;99631.55;2122247;84;20977;-81
2022/10/13 08:34:09;;;;;;;24.02;8.68;;;;;;;11.70;71.82;99633.53;2122571;84;21471;-78
2022/10/13 08:37:09;;;;;;;21.07;9.30;;;;;;;11.88;71.91;99627.80;2122005;84;20941;-78
2022/10/13 08:40:10;;;;;;;26.37;9.18;;;;;;;12.01;70.24;99624.56;2123004;84;21404;-82
2022/10/13 08:43:10;;;;;;;19.25;8.60;;;;;;;12.10;69.74;99623.42;2123837;84;20973;-82
2022/10/13 08:46:10;;;;;;;82.42;12.85;;;;;;;12.17;68.08;99620.95;2123383;84;20930;-83
2022/10/13 08:49:11;;;;;;;19.73;8.75;;;;;;;12.24;68.87;99613.23;2124367;84;20925;-81
2022/10/13 08:52:11;;;;;;;36.63;10.15;;;;;;;12.35;68.57;99622.58;2124740;84;21397;-82
2022/10/13 08:55:12;;;;;;;21.80;10.15;;;;;;;12.41;68.01;99617.44;2124580;84;20981;-83
2022/10/13 08:58:12;;;;;;;15.43;9.18;;;;;;;12.48;67.55;99610.14;2124444;81;21029;-83
2022/10/13 09:01:12;;;;;;;40.98;10.32;;;;;;;12.59;67.31;99613.81;2125529;84;20941;-83
2022/10/13 09:04:13;;;;;;;46.35;11.65;;;;;;;12.68;67.35;99610.03;2124629;84;20953;-83
2022/10/13 09:07:13;;;;;;;233.40;21.50;;;;;;;12.82;67.05;99613.28;2124882;84;20937;-82
2022/10/13 09:10:17;;;;;;;54.08;11.83;;;;;;;13.00;67.51;99609.22;2125071;84;20965;-83
2022/10/13 09:13:17;;;;;;;35.20;11.45;;;;;;;13.15;66.57;99609.87;2124096;84;20934;-80
2022/10/13 09:16:17;;;;;;;20.60;9.33;;;;;;;13.23;65.34;99606.95;2126411;84;20981;-82
2022/10/13 09:19:18;;;;;;;21.15;8.80;;;;;;;13.27;65.53;99610.06;2124914;84;20981;-82
2022/10/13 09:22:18;;;;;;;30.82;10.28;;;;;;;13.34;64.17;99605.35;2124352;84;20961;-83
2022/10/13 09:25:18;;;;;;;19.25;10.03;;;;;;;13.37;64.71;99605.39;2124243;84;20942;-82
2022/10/13 09:28:19;;;;;;;17.75;9.75;;;;;;;13.45;64.37;99598.92;2122879;83;21068;-82
2022/10/13 09:31:19;;;;;;;25.45;10.48;;;;;;;13.47;63.54;99599.83;2101042;85;20975;-83
2022/10/13 09:34:20;;;;;;;29.77;10.90;;;;;;;13.48;64.29;99605.95;2123233;83;20949;-82
2022/10/13 09:37:20;;;;;;;19.32;10.32;;;;;;;13.62;64.82;99603.94;2122839;84;21440;-80
2022/10/13 09:40:21;;;;;;;41.73;11.83;;;;;;;13.74;64.43;99602.32;2123344;84;20941;-83
2022/10/13 09:43:21;;;;;;;25.82;10.55;;;;;;;13.80;64.06;99603.70;2123192;84;20933;-80
2022/10/13 09:46:21;;;;;;;26.00;11.80;;;;;;;13.83;63.39;99598.05;2123269;84;21357;-81
2022/10/13 09:49:22;;;;;;;24.25;11.20;;;;;;;13.91;63.44;99597.73;2123796;84;20946;-82
2022/10/13 09:52:24;;;;;;;28.87;12.45;;;;;;;13.99;63.30;99589.94;2123839;84;20985;-80
2022/10/13 09:55:23;;;;;;;16.17;10.18;;;;;;;14.07;63.31;99590.02;2123580;84;20993;-80
2022/10/13 09:58:23;;;;;;;22.55;10.48;;;;;;;14.15;63.49;99591.84;2150201;81;21421;-83
2022/10/13 10:01:24;;;;;;;24.43;11.78;;;;;;;14.23;62.74;99590.60;2160822;82;21353;-82
2022/10/13 10:04:24;;;;;;;23.00;10.65;;;;;;;14.19;61.52;99583.56;2160570;82;20968;-81
2022/10/13 10:07:24;;;;;;;21.95;10.43;;;;;;;14.16;61.26;99579.59;2160223;82;20986;-79
2022/10/13 10:10:25;;;;;;;21.90;10.58;;;;;;;14.18;62.26;99574.80;2160348;82;21691;-81
2022/10/13 10:13:25;;;;;;;23.20;10.65;;;;;;;14.21;61.77;99573.95;2160992;82;21326;-81
2022/10/13 10:16:30;;;;;;;20.08;10.82;;;;;;;14.27;62.55;99573.58;2161075;82;20941;-81
2022/10/13 10:19:27;;;;;;;22.65;11.20;;;;;;;14.32;61.09;99558.73;2161009;82;20949;-80
2022/10/13 10:22:27;;;;;;;35.65;11.00;;;;;;;14.32;61.61;99560.05;2160796;82;21393;-81
2022/10/13 10:25:28;;;;;;;18.55;9.73;;;;;;;14.45;61.38;99548.36;2161265;82;20942;-81
2022/10/13 10:28:28;;;;;;;25.75;9.60;;;;;;;14.52;60.41;99549.73;2161316;82;21017;-82
2022/10/13 10:31:28;;;;;;;17.73;10.30;;;;;;;14.51;60.05;99550.59;2209685;79;21030;-82
2022/10/13 10:34:29;;;;;;;21.77;10.53;;;;;;;14.54;59.63;99545.36;2235700;79;21015;-82
2022/10/13 10:37:29;;;;;;;30.77;11.78;;;;;;;14.54;59.89;99544.05;2241145;79;20939;-82
2022/10/13 10:40:30;;;;;;;19.73;10.53;;;;;;;14.60;59.89;99548.47;2241182;79;20938;-83
2022/10/13 10:43:30;;;;;;;22.35;10.60;;;;;;;14.61;58.64;99539.72;2241420;79;20986;-81
2022/10/13 10:46:31;;;;;;;30.75;11.95;;;;;;;14.58;59.23;99545.83;2240760;79;20986;-81
2022/10/13 10:49:31;;;;;;;17.70;11.03;;;;;;;14.60;59.06;99544.09;2240870;79;20900;-82
2022/10/13 10:52:31;;;;;;;16.05;10.30;;;;;;;14.66;59.76;99542.81;2240763;79;20883;-82
2022/10/13 10:55:32;;;;;;;163.32;22.15;;;;;;;14.80;58.88;99542.05;2240270;79;20943;-83
2022/10/13 10:58:32;;;;;;;22.98;10.03;;;;;;;14.88;59.66;99544.30;2240750;79;20939;-82
2022/10/13 11:01:33;;;;;;;21.45;9.75;;;;;;;14.92;58.64;99538.18;2241207;79;21302;-83
2022/10/13 11:04:34;;;;;;;16.82;9.90;;;;;;;15.00;58.96;99535.59;2240800;79;21019;-82
2022/10/13 11:07:34;;;;;;;15.65;9.10;;;;;;;15.03;58.81;99527.28;2241638;79;20954;-82
2022/10/13 11:10:34;;;;;;;14.65;9.08;;;;;;;15.11;59.05;99524.25;2242017;79;20911;-81
2022/10/13 11:13:34;;;;;;;19.15;8.90;;;;;;;15.14;58.24;99515.06;2242136;79;21601;-81
2022/10/13 11:16:35;;;;;;;18.48;9.08;;;;;;;15.09;57.59;99513.28;2241547;79;20880;-81
2022/10/13 11:19:35;;;;;;;19.85;9.75;;;;;;;15.07;57.46;99509.77;2241404;79;20900;-83
2022/10/13 11:22:35;;;;;;;15.90;9.05;;;;;;;15.08;56.93;99497.95;2241995;79;21013;-82
2022/10/13 11:25:36;;;;;;;13.45;8.30;;;;;;;15.08;57.00;99491.37;2242079;79;20915;-81
2022/10/13 11:28:39;;;;;;;23.90;9.70;;;;;;;15.11;57.20;99497.08;2241530;79;21401;-81
2022/10/13 11:31:39;;;;;;;24.12;9.20;;;;;;;15.16;57.44;99492.72;2217477;79;20951;-81
2022/10/13 11:34:39;;;;;;;20.35;9.15;;;;;;;15.20;56.53;99483.97;2237308;79;21315;-83
2022/10/13 11:37:39;;;;;;;17.82;8.38;;;;;;;15.29;57.82;99479.61;2218712;80;20902;-81
2022/10/13 11:40:40;;;;;;;148.10;19.27;;;;;;;15.43;57.71;99481.41;2217913;80;20921;-81
2022/10/13 11:43:40;;;;;;;15.30;8.00;;;;;;;15.51;56.40;99478.35;2234651;80;20939;-81
2022/10/13 11:46:41;;;;;;;36.68;9.25;;;;;;;15.50;57.00;99475.28;2218080;80;20929;-82
2022/10/13 11:49:41;;;;;;;14.45;8.15;;;;;;;15.51;55.83;99470.02;2155454;80;21142;-81
2022/10/13 11:52:41;;;;;;;13.32;8.50;;;;;;;15.50;56.81;99467.39;2113113;84;21431;-83
2022/10/13 11:55:42;;;;;;;23.45;11.20;;;;;;;15.51;56.59;99466.52;2114460;84;20960;-81
2022/10/13 11:58:42;;;;;;;19.52;9.70;;;;;;;15.54;56.31;99461.25;2115891;84;20996;-83
2022/10/13 12:01:43;;;;;;;17.32;8.20;;;;;;;15.58;55.93;99460.41;2114298;84;21445;-80
2022/10/13 12:04:43;;;;;;;17.57;9.45;;;;;;;15.54;56.22;99455.99;2114577;84;21004;-81
2022/10/13 12:07:43;;;;;;;26.60;9.98;;;;;;;15.52;56.45;99459.94;2114404;84;21688;-82
2022/10/13 12:10:44;;;;;;;18.50;9.70;;;;;;;15.56;55.75;99449.86;2113115;84;20924;-81
2022/10/13 12:13:44;;;;;;;24.80;10.38;;;;;;;15.55;55.77;99449.42;2112334;84;20928;-81
2022/10/13 12:16:45;;;;;;;15.20;9.05;;;;;;;15.54;55.79;99449.41;2112221;84;21640;-80
2022/10/13 12:19:45;;;;;;;15.65;9.78;;;;;;;15.48;55.56;99454.66;2112312;84;21035;-81
2022/10/13 12:22:45;;;;;;;23.00;10.05;;;;;;;15.47;55.50;99451.59;2112123;84;20964;-81
2022/10/13 12:25:46;;;;;;;18.10;9.20;;;;;;;15.45;55.57;99446.77;2111826;84;21369;-79
2022/10/13 12:28:46;;;;;;;14.60;9.25;;;;;;;15.48;55.48;99442.39;2111853;84;21023;-81
2022/10/13 12:31:47;;;;;;;17.82;9.60;;;;;;;15.47;55.86;99434.49;2113024;84;20996;-80
2022/10/13 12:34:47;;;;;;;18.92;9.40;;;;;;;15.48;55.65;99438.44;2113160;84;21605;-80
2022/10/13 12:37:47;;;;;;;16.57;9.53;;;;;;;15.45;55.43;99429.67;2113841;84;21024;-79
2022/10/13 12:40:48;;;;;;;22.95;9.90;;;;;;;15.42;54.93;99437.12;2114186;84;20932;-79
2022/10/13 12:43:48;;;;;;;19.00;8.90;;;;;;;15.42;55.09;99428.34;2114827;84;21675;-80
2022/10/13 12:46:51;;;;;;;13.18;8.93;;;;;;;15.45;54.76;99430.98;2114927;84;21016;-80
2022/10/13 12:49:49;;;;;;;16.15;8.20;;;;;;;15.42;54.82;99427.91;2112928;84;21023;-80
2022/10/13 12:52:50;;;;;;;22.58;9.13;;;;;;;15.46;55.15;99424.41;2113097;84;20955;-78
2022/10/13 12:55:50;;;;;;;17.25;10.55;;;;;;;15.48;54.88;99423.97;2113629;84;21450;-80
2022/10/13 12:58:50;;;;;;;17.40;9.88;;;;;;;15.47;54.93;99417.39;2113835;84;20960;-79
2022/10/13 13:01:51;;;;;;;20.90;9.68;;;;;;;15.51;55.45;99427.05;2114060;84;20991;-81
2022/10/13 13:04:51;;;;;;;19.85;9.85;;;;;;;15.54;55.45;99419.16;2114557;84;20955;-80
2022/10/13 13:07:52;;;;;;;22.10;10.58;;;;;;;15.55;55.21;99420.91;2114621;84;20988;-80
2022/10/13 13:10:52;;;;;;;24.85;10.95;;;;;;;15.46;55.38;99411.69;2113924;84;20992;-79
2022/10/13 13:13:52;;;;;;;26.50;9.53;;;;;;;15.44;55.98;99410.38;2114155;84;20955;-82
2022/10/13 13:16:53;;;;;;;15.83;9.55;;;;;;;15.50;55.80;99408.19;2114122;84;20984;-81
2022/10/13 13:19:53;;;;;;;19.73;9.85;;;;;;;15.47;55.68;99409.06;2113994;84;21386;-78
2022/10/13 13:22:54;;;;;;;19.02;9.65;;;;;;;15.42;55.61;99401.60;2113241;84;21027;-81
2022/10/13 13:25:54;;;;;;;15.63;9.05;;;;;;;15.43;55.92;99399.41;2112641;84;21008;-81
2022/10/13 13:28:54;;;;;;;32.05;11.10;;;;;;;15.46;55.97;99397.22;2112795;84;20979;-78
2022/10/13 13:31:55;;;;;;;13.25;8.98;;;;;;;15.48;55.84;99394.16;2112180;84;21462;-79
2022/10/13 13:34:55;;;;;;;13.55;9.60;;;;;;;15.49;55.57;99395.91;2112324;84;20956;-78
2022/10/13 13:37:56;;;;;;;26.23;10.78;;;;;;;15.45;55.40;99395.47;2113068;84;20963;-79
2022/10/13 13:40:56;;;;;;;18.82;9.95;;;;;;;15.34;55.42;99393.27;2113897;84;21743;-79
2022/10/13 13:43:56;;;;;;;16.48;9.43;;;;;;;15.33;55.41;99393.70;2114807;84;21026;-78
2022/10/13 13:46:57;;;;;;;15.40;9.85;;;;;;;15.29;54.84;99390.19;2114402;84;21352;-79
2022/10/13 13:49:59;;;;;;;13.85;8.05;;;;;;;15.25;55.55;99391.06;2117364;84;21459;-79
2022/10/13 13:52:58;;;;;;;12.95;8.95;;;;;;;15.25;55.17;99388.42;2121545;84;20960;-79
2022/10/13 13:55:58;;;;;;;14.23;8.98;;;;;;;15.22;55.83;99389.73;2121829;84;21410;-80
2022/10/13 13:58:58;;;;;;;14.18;8.45;;;;;;;15.18;55.29;99382.72;2121631;84;21011;-78